Time,TemperatureF,DewpointF,PressureIn,WindDirection,WindDirectionDegrees,WindSpeedMPH,WindSpeedGustMPH,Humidity,HourlyPrecipIn,Conditions,Clouds,dailyrainin,SoftwareType,DateUTC
2013-02-18 00:00:00,54.3,47.9,30.08,South,170,2.0,9.0,79,0.00,,---,0.00,VWS V14.00,2013-02-18 08:00:00,
2013-02-18 00:30:00,54.2,48.2,30.07,SSE,155,0.0,4.0,80,0.00,,---,0.00,VWS V14.00,2013-02-18 08:30:00,
2013-02-18 01:00:00,53.8,47.5,30.07,ESE,111,0.0,3.0,79,0.00,,---,0.00,VWS V14.00,2013-02-18 09:00:00,
2013-02-18 01:30:00,53.0,46.7,30.07,ESE,111,0.0,1.0,79,0.00,,---,0.00,VWS V14.00,2013-02-18 09:30:00,
2013-02-18 02:00:00,53.0,47.0,30.07,ESE,103,2.0,3.0,80,0.00,,---,0.00,VWS V14.00,2013-02-18 10:00:00,
2013-02-18 02:30:00,53.3,47.0,30.07,East,92,0.0,2.0,79,0.00,,---,0.00,VWS V14.00,2013-02-18 10:30:00,
2013-02-18 03:00:00,53.4,47.1,30.06,ESE,102,0.0,3.0,79,0.00,,---,0.00,VWS V14.00,2013-02-18 11:00:00,
2013-02-18 03:30:00,52.9,46.6,30.06,ESE,120,0.0,6.0,79,0.00,,---,0.00,VWS V14.00,2013-02-18 11:30:00,
2013-02-18 04:00:00,52.7,46.0,30.07,ESE,108,0.0,1.0,78,0.00,,---,0.00,VWS V14.00,2013-02-18 12:00:00,
2013-02-18 04:30:00,52.9,46.2,30.08,East,101,3.0,3.0,78,0.00,,---,0.00,VWS V14.00,2013-02-18 12:30:00,
2013-02-18 05:00:00,52.6,46.0,30.08,East,101,0.0,5.0,78,0.00,,---,0.00,VWS V14.00,2013-02-18 13:00:00,
2013-02-18 05:30:00,52.7,46.0,30.09,ESE,103,0.0,3.0,78,0.00,,---,0.00,VWS V14.00,2013-02-18 13:30:00,
2013-02-18 06:00:00,52.8,46.1,30.09,ESE,108,0.0,1.0,78,0.00,,---,0.00,VWS V14.00,2013-02-18 14:00:00,
2013-02-18 06:30:00,51.8,45.2,30.11,ENE,61,0.0,1.0,78,0.00,,---,0.00,VWS V14.00,2013-02-18 14:30:00,
2013-02-18 06:31:00,52.5,45.8,30.10,ESE,108,0.0,1.0,78,0.00,,---,0.00,VWS V14.00,2013-02-18 14:31:00,
2013-02-18 07:00:00,52.2,45.6,30.11,ENE,62,0.0,2.0,78,0.00,,---,0.00,VWS V14.00,2013-02-18 15:00:00,
2013-02-18 07:30:00,51.8,45.2,30.11,ENE,61,0.0,1.0,78,0.00,,---,0.00,VWS V14.00,2013-02-18 15:30:00,
2013-02-18 08:00:00,52.0,45.0,30.11,ENE,60,0.0,1.0,77,0.00,,---,0.00,VWS V14.00,2013-02-18 16:00:00,
2013-02-18 08:30:00,53.0,45.3,30.11,ENE,59,0.0,1.0,75,0.00,,---,0.00,VWS V14.00,2013-02-18 16:30:00,
2013-02-18 09:00:00,54.1,46.0,30.11,ENE,57,0.0,2.0,74,0.00,,---,0.00,VWS V14.00,2013-02-18 17:00:00,
2013-02-18 09:30:00,55.3,46.4,30.11,ESE,113,0.0,3.0,72,0.00,,---,0.00,VWS V14.00,2013-02-18 17:30:00,
2013-02-18 10:00:00,55.9,47.0,30.11,East,93,0.0,3.0,72,0.00,,---,0.00,VWS V14.00,2013-02-18 18:00:00,
2013-02-18 10:30:00,56.9,47.2,30.11,SSE,151,0.0,4.0,70,0.00,,---,0.00,VWS V14.00,2013-02-18 18:30:00,
2013-02-18 11:00:00,58.9,48.8,30.08,SSE,164,3.0,4.0,69,0.00,,---,0.00,VWS V14.00,2013-02-18 19:00:00,
2013-02-18 11:01:00,57.1,46.7,30.11,SSE,153,0.0,4.0,68,0.00,,---,0.00,VWS V14.00,2013-02-18 19:01:00,
2013-02-18 11:30:00,59.2,47.5,30.10,South,173,2.0,3.0,65,0.00,,---,0.00,VWS V14.00,2013-02-18 19:30:00,
2013-02-18 12:00:00,59.4,48.8,30.06,South,177,1.0,4.0,68,0.00,,---,0.00,VWS V14.00,2013-02-18 20:00:00,
2013-02-18 12:01:00,58.9,48.8,30.08,SSE,164,3.0,4.0,69,0.00,,---,0.00,VWS V14.00,2013-02-18 20:01:00,
2013-02-18 12:30:00,58.6,48.9,30.07,South,177,2.0,3.0,70,0.00,,---,0.00,VWS V14.00,2013-02-18 20:30:00,
2013-02-18 13:00:00,58.6,50.0,30.04,South,173,3.0,5.0,73,0.00,,---,0.00,VWS V14.00,2013-02-18 21:00:00,
2013-02-18 13:01:00,59.4,48.8,30.06,South,177,1.0,4.0,68,0.00,,---,0.00,VWS V14.00,2013-02-18 21:01:00,
2013-02-18 13:30:00,59.4,48.8,30.04,South,174,1.0,4.0,68,0.00,,---,0.00,VWS V14.00,2013-02-18 21:30:00,
2013-02-18 14:00:00,58.6,50.0,30.04,South,173,3.0,5.0,73,0.00,,---,0.00,VWS V14.00,2013-02-18 22:00:00,
2013-02-18 14:30:00,57.1,48.5,30.03,South,178,5.0,5.0,73,0.00,,---,0.00,VWS V14.00,2013-02-18 22:30:00,
2013-02-18 14:31:00,57.6,49.0,30.03,South,177,3.0,5.0,73,0.00,,---,0.00,VWS V14.00,2013-02-18 22:31:00,
2013-02-18 15:00:00,57.2,49.0,30.03,South,180,3.0,5.0,74,0.00,,---,0.00,VWS V14.00,2013-02-18 23:00:00,
2013-02-18 15:30:00,57.1,48.5,30.03,South,178,5.0,5.0,73,0.00,,---,0.00,VWS V14.00,2013-02-18 23:30:00,
2013-02-18 16:00:00,56.8,49.0,30.03,South,180,4.0,5.0,75,0.00,,---,0.00,VWS V14.00,2013-02-19 00:00:00,
2013-02-18 16:30:00,54.7,47.3,30.01,South,180,1.0,3.0,76,0.00,,---,0.00,VWS V14.00,2013-02-19 00:30:00,
2013-02-18 16:31:00,56.9,48.0,30.02,SSE,166,4.0,5.0,72,0.00,,---,0.00,VWS V14.00,2013-02-19 00:31:00,
2013-02-18 17:00:00,55.8,47.7,30.01,SSE,166,3.0,5.0,74,0.00,,---,0.00,VWS V14.00,2013-02-19 01:00:00,
2013-02-18 17:30:00,54.7,47.3,30.01,South,180,1.0,3.0,76,0.00,,---,0.00,VWS V14.00,2013-02-19 01:30:00,
2013-02-18 18:00:00,54.1,46.4,30.03,SSE,151,1.0,5.0,75,0.00,,---,0.00,VWS V14.00,2013-02-19 02:00:00,
2013-02-18 18:01:00,54.4,47.0,30.02,SSE,150,2.0,4.0,76,0.00,,---,0.00,VWS V14.00,2013-02-19 02:01:00,
2013-02-18 18:30:00,54.3,46.9,30.04,South,178,4.0,4.0,76,0.00,,---,0.00,VWS V14.00,2013-02-19 02:30:00,
2013-02-18 18:31:00,54.1,46.7,30.03,SSE,155,2.0,4.0,76,0.00,,---,0.00,VWS V14.00,2013-02-19 02:31:00,
2013-02-18 19:00:00,54.3,45.8,30.05,SSE,149,1.0,5.0,73,0.00,,---,0.00,VWS V14.00,2013-02-19 03:00:00,
2013-02-18 19:30:00,54.3,46.9,30.04,South,178,4.0,4.0,76,0.00,,---,0.00,VWS V14.00,2013-02-19 03:30:00,
2013-02-18 20:00:00,53.6,45.2,30.05,South,175,2.0,6.0,73,0.00,,---,0.00,VWS V14.00,2013-02-19 04:00:00,
2013-02-18 20:01:00,54.3,45.8,30.05,SSE,149,1.0,5.0,73,0.00,,---,0.00,VWS V14.00,2013-02-19 04:01:00,
2013-02-18 20:30:00,53.4,45.0,30.05,SSE,155,2.0,6.0,73,0.00,,---,0.00,VWS V14.00,2013-02-19 04:30:00,
2013-02-18 20:31:00,54.0,45.2,30.05,SSE,162,2.0,5.0,72,0.00,,---,0.00,VWS V14.00,2013-02-19 04:31:00,
2013-02-18 21:00:00,53.6,45.2,30.05,South,175,2.0,6.0,73,0.00,,---,0.00,VWS V14.00,2013-02-19 05:00:00,
2013-02-18 21:30:00,53.4,45.0,30.05,SSE,155,2.0,6.0,73,0.00,,---,0.00,VWS V14.00,2013-02-19 05:30:00,
2013-02-18 22:00:00,53.2,43.3,30.05,South,174,1.0,6.0,69,0.00,,---,0.00,VWS V14.00,2013-02-19 06:00:00,
2013-02-18 22:01:00,53.5,45.1,30.06,SSE,161,0.0,6.0,73,0.00,,---,0.00,VWS V14.00,2013-02-19 06:01:00,
2013-02-18 22:30:00,53.3,43.4,30.05,SE,146,1.0,5.0,69,0.00,,---,0.00,VWS V14.00,2013-02-19 06:30:00,
2013-02-18 22:31:00,53.4,44.6,30.06,SSE,154,2.0,5.0,72,0.00,,---,0.00,VWS V14.00,2013-02-19 06:31:00,
2013-02-18 23:00:00,53.2,43.3,30.05,South,174,1.0,6.0,69,0.00,,---,0.00,VWS V14.00,2013-02-19 07:00:00,
2013-02-18 23:30:00,53.2,42.9,30.05,South,179,2.0,5.0,68,0.00,,---,0.00,VWS V14.00,2013-02-19 07:30:00,
2013-02-18 23:31:00,53.3,43.4,30.05,SE,146,1.0,5.0,69,0.00,,---,0.00,VWS V14.00,2013-02-19 07:31:00,